Time;durP1;ratioP1;P1;durP2;ratioP2;P2;SDS_P1;SDS_P2;PMS_P1;PMS_P2;Temp;Humidity;BMP_temperature;BMP_pressure;BME280_temperature;BME280_humidity;BME280_pressure;Samples;Min_cycle;Max_cycle;Signal;HPM_P1;HPM_P2
2023/12/11 00:01:03;;;;;;;;;4.00;0.00;;;;;12.02;100.00;100398.44;5097730;27;45390;-49
2023/12/11 00:03:28;;;;;;;;;4.00;2.00;;;;;11.99;100.00;100387.09;5097310;27;46219;-47
2023/12/11 00:05:54;;;;;;;;;1.00;0.00;;;;;11.98;100.00;100403.25;5096960;27;45658;-47
2023/12/11 00:08:19;;;;;;;;;3.00;1.00;;;;;11.98;100.00;100392.59;5097378;27;45330;-48
2023/12/11 00:10:44;;;;;;;;;3.00;1.00;;;;;11.97;100.00;100382.94;5097644;27;45311;-49
2023/12/11 00:13:10;;;;;;;;;3.00;2.00;;;;;11.96;100.00;100384.75;5097433;27;47012;-46
2023/12/11 00:15:35;;;;;;;;;2.33;1.00;;;;;11.96;100.00;100383.91;5078681;27;45544;-51
2023/12/11 00:18:00;;;;;;;;;1.00;1.00;;;;;11.94;100.00;100380.59;5097579;27;45422;-47
2023/12/11 00:20:26;;;;;;;;;3.00;1.33;;;;;11.93;99.85;100378.94;5097606;27;45410;-48
2023/12/11 00:22:51;;;;;;;;;3.00;3.00;;;;;11.92;99.44;100387.91;5097382;27;45980;-46
2023/12/11 00:25:17;;;;;;;;;1.00;0.67;;;;;11.91;99.68;100384.41;5078707;27;45386;-48
2023/12/11 00:27:42;;;;;;;;;3.00;1.00;;;;;11.91;99.24;100372.91;5097354;27;45344;-47
2023/12/11 00:30:09;;;;;;;;;4.00;1.00;;;;;11.88;99.45;100362.56;5097243;27;45587;-46
2023/12/11 00:32:34;;;;;;;;;2.00;0.33;;;;;11.87;98.24;100372.41;5097122;27;47025;-47
2023/12/11 00:34:59;;;;;;;;;1.00;1.00;;;;;11.86;98.83;100377.91;5097427;27;45290;-46
2023/12/11 00:37:25;;;;;;;;;3.00;2.00;;;;;11.85;98.64;100373.59;5097181;27;45275;-50
2023/12/11 00:39:51;;;;;;;;;3.33;1.00;;;;;11.82;98.27;100368.53;5097273;27;45443;-47
2023/12/11 00:42:16;;;;;;;;;3.67;1.00;;;;;11.82;98.00;100372.03;5097037;27;45230;-48
2023/12/11 00:44:42;;;;;;;;;3.67;0.33;;;;;11.81;98.28;100382.88;5096682;27;45453;-48
2023/12/11 00:47:07;;;;;;;;;0.67;0.67;;;;;11.80;97.72;100381.19;5097397;27;45723;-44
2023/12/11 00:49:32;;;;;;;;;3.00;3.00;;;;;11.77;97.69;100384.19;5097175;27;45314;-48
2023/12/11 00:51:58;;;;;;;;;3.00;2.00;;;;;11.76;97.68;100388.69;5096933;27;45412;-47
2023/12/11 00:54:23;;;;;;;;;3.67;1.67;;;;;11.76;97.07;100378.03;5096891;27;45350;-48
2023/12/11 00:56:49;;;;;;;;;3.00;1.33;;;;;11.76;96.92;100378.03;5097211;27;45536;-45
2023/12/11 00:59:14;;;;;;;;;1.00;1.00;;;;;11.74;97.67;100364.84;5097062;27;45289;-45
2023/12/11 01:01:40;;;;;;;;;3.33;1.00;;;;;11.74;97.02;100362.19;5096662;27;45456;-47
2023/12/11 01:04:05;;;;;;;;;5.33;3.00;;;;;11.73;97.00;100362.38;5096713;27;45425;-45
2023/12/11 01:06:30;;;;;;;;;2.67;0.00;;;;;11.73;97.01;100367.69;5097001;27;45739;-47
2023/12/11 01:08:56;;;;;;;;;7.00;2.00;;;;;11.66;96.44;100364.84;5096893;27;45366;-46
2023/12/11 01:11:21;;;;;;;;;4.00;2.33;;;;;11.69;96.80;100359.19;5096565;27;46016;-45
2023/12/11 01:13:46;;;;;;;;;2.67;1.00;;;;;11.68;96.73;100380.69;5096696;27;45373;-46
2023/12/11 01:16:12;;;;;;;;;4.00;1.00;;;;;11.66;96.60;100385.31;5096566;27;45372;-47
2023/12/11 01:18:38;;;;;;;;;1.00;1.00;;;;;11.69;96.70;100391.16;5099500;27;45201;-47
2023/12/11 01:21:04;;;;;;;;;2.67;2.00;;;;;11.70;95.93;100384.00;5099883;27;46111;-46
2023/12/11 01:23:29;;;;;;;;;3.00;2.00;;;;;11.69;95.35;100390.34;5098770;27;45334;-46
2023/12/11 01:25:54;;;;;;;;;8.00;2.00;;;;;11.49;96.25;100379.13;5100042;27;45225;-46
2023/12/11 01:28:20;;;;;;;;;2.00;1.67;;;;;11.70;95.31;100410.66;5100334;27;45401;-47
2023/12/11 01:30:45;;;;;;;;;6.00;3.00;;;;;11.71;95.72;100418.50;5099913;27;46314;-47
2023/12/11 01:33:10;;;;;;;;;2.67;0.67;;;;;11.68;95.56;100426.81;5099836;27;45378;-47
2023/12/11 01:35:37;;;;;;;;;4.67;1.00;;;;;11.67;95.42;100411.81;5099992;27;45248;-44
2023/12/11 01:38:03;;;;;;;;;4.67;2.00;;;;;11.68;95.16;100402.81;5081755;27;45287;-49
2023/12/11 01:40:29;;;;;;;;;2.00;2.00;;;;;11.67;95.04;100393.19;5099692;27;45987;-46
2023/12/11 01:42:54;;;;;;;;;5.33;1.67;;;;;11.69;95.03;100383.19;5099705;27;45245;-49
2023/12/11 01:45:19;;;;;;;;;2.00;2.00;;;;;11.74;94.38;100380.84;5098680;27;45384;-47
2023/12/11 01:47:45;;;;;;;;;4.00;3.00;;;;;11.74;94.32;100396.00;5100248;27;45344;-48
2023/12/11 01:50:10;;;;;;;;;3.00;2.67;;;;;11.77;94.22;100398.34;5099610;27;45422;-46
2023/12/11 01:52:37;;;;;;;;;8.67;2.00;;;;;11.72;94.01;100390.84;5099751;27;45421;-46
2023/12/11 01:55:04;;;;;;;;;8.67;3.00;;;;;11.85;94.30;100408.25;5099881;27;45521;-50
2023/12/11 01:57:31;;;;;;;;;3.67;3.00;;;;;11.88;93.62;100413.22;5099614;27;45388;-46
2023/12/11 01:59:57;;;;;;;;;4.67;2.00;;;;;11.90;93.50;100417.41;5099291;27;45345;-46
2023/12/11 02:02:22;;;;;;;;;4.33;1.67;;;;;11.92;92.96;100417.22;5099412;27;45407;-47
2023/12/11 02:04:49;;;;;;;;;3.67;2.00;;;;;11.94;93.69;100399.25;5099640;27;45180;-46
2023/12/11 02:07:16;;;;;;;;;3.33;2.00;;;;;11.95;93.55;100374.25;5099734;27;46171;-46
2023/12/11 02:09:41;;;;;;;;;4.00;1.67;;;;;11.94;93.04;100377.94;5099198;27;45353;-49
2023/12/11 02:12:07;;;;;;;;;6.67;2.00;;;;;11.91;93.38;100368.41;5099237;27;45369;-49
2023/12/11 02:14:32;;;;;;;;;3.00;1.00;;;;;11.89;93.12;100364.28;5099520;27;45473;-46
2023/12/11 02:16:58;;;;;;;;;2.67;2.00;;;;;11.88;92.79;100365.25;5099376;27;45588;-45
2023/12/11 02:19:23;;;;;;;;;3.67;1.00;;;;;11.91;92.95;100378.25;5099217;27;47087;-47
2023/12/11 02:21:49;;;;;;;;;3.00;1.33;;;;;11.90;92.80;100365.94;5099245;27;45536;-45
2023/12/11 02:24:20;;;;;;;;;4.33;3.00;;;;;11.90;93.19;100373.94;5099161;27;45310;-45
2023/12/11 02:26:48;;;;;;;;;7.00;1.00;;;;;11.91;92.63;100373.75;5099465;27;45347;-51
2023/12/11 02:29:13;;;;;;;;;6.33;2.00;;;;;11.90;92.93;100365.94;5098545;27;45300;-47
2023/12/11 02:31:38;;;;;;;;;6.67;1.00;;;;;11.92;92.98;100363.91;5098923;27;45993;-45
2023/12/11 02:34:04;;;;;;;;;6.00;1.67;;;;;11.91;92.76;100346.25;5099052;27;45491;-48
2023/12/11 02:36:29;;;;;;;;;4.67;1.33;;;;;11.92;92.72;100347.94;5099177;27;45427;-45
2023/12/11 02:38:54;;;;;;;;;2.67;1.33;;;;;11.93;93.00;100346.94;5099007;27;46006;-47
2023/12/11 02:41:20;;;;;;;;;1.00;1.00;;;;;11.93;92.76;100355.78;5098837;27;45351;-44
2023/12/11 02:43:45;;;;;;;;;12.00;4.00;;;;;11.95;92.43;100344.94;5080626;27;45323;-45
2023/12/11 02:46:11;;;;;;;;;3.00;2.00;;;;;11.95;92.40;100332.44;5078889;27;45357;-47
2023/12/11 02:48:36;;;;;;;;;7.00;1.33;;;;;11.96;92.50;100333.25;5098706;27;45207;-47
2023/12/11 02:51:01;;;;;;;;;2.67;2.00;;;;;11.95;92.54;100343.09;5098996;27;45181;-48
2023/12/11 02:53:27;;;;;;;;;2.00;0.67;;;;;11.96;92.75;100351.94;5098722;27;45588;-53
2023/12/11 02:55:52;;;;;;;;;3.00;3.00;;;;;11.97;92.58;100342.97;5099251;27;45308;-52
2023/12/11 02:58:17;;;;;;;;;3.00;1.67;;;;;11.97;92.28;100353.63;5098408;27;46017;-54
2023/12/11 03:00:43;;;;;;;;;1.00;1.00;;;;;11.98;92.38;100344.63;5098555;27;45428;-53
2023/12/11 03:03:09;;;;;;;;;2.33;2.33;;;;;11.97;92.38;100341.13;5098709;27;45411;-52
2023/12/11 03:05:34;;;;;;;;;3.67;2.00;;;;;11.96;92.85;100342.09;5098575;27;45562;-54
2023/12/11 03:08:06;;;;;;;;;0.67;0.67;;;;;11.94;92.51;100333.44;5098515;27;45343;-54
2023/12/11 03:10:32;;;;;;;;;5.33;1.33;;;;;11.95;92.92;100342.28;5098445;27;45372;-55
2023/12/11 03:12:58;;;;;;;;;3.00;1.00;;;;;11.96;93.10;100341.25;5098599;27;45267;-55
2023/12/11 03:15:24;;;;;;;;;4.33;2.00;;;;;11.99;92.91;100346.28;5098301;27;45451;-55
2023/12/11 03:17:49;;;;;;;;;6.33;2.00;;;;;12.01;92.40;100333.63;5098232;27;45306;-56
2023/12/11 03:20:14;;;;;;;;;3.00;2.67;;;;;12.00;92.27;100326.59;5098243;27;45446;-54
2023/12/11 03:22:40;;;;;;;;;7.00;2.00;;;;;11.98;92.40;100321.44;5098369;27;45376;-51
2023/12/11 03:25:06;;;;;;;;;8.33;1.00;;;;;12.03;92.36;100322.78;5098468;27;45492;-55
2023/12/11 03:27:31;;;;;;;;;0.00;0.00;;;;;12.01;92.69;100316.78;5097975;27;45885;-53
2023/12/11 03:29:56;;;;;;;;;3.00;2.00;;;;;12.02;92.31;100313.13;5097802;27;45455;-51
2023/12/11 03:32:22;;;;;;;;;2.33;2.00;;;;;12.02;92.64;100313.13;5098121;27;45300;-55
2023/12/11 03:34:47;;;;;;;;;1.33;1.33;;;;;12.01;92.27;100320.31;5098429;27;45543;-52
2023/12/11 03:37:13;;;;;;;;;1.33;1.33;;;;;11.91;92.15;100284.97;5097982;27;45447;-55
2023/12/11 03:39:38;;;;;;;;;5.00;2.33;;;;;11.81;92.25;100274.44;5097418;27;45453;-54
2023/12/11 03:42:04;;;;;;;;;3.33;2.33;;;;;12.04;92.98;100332.44;5097657;27;45620;-53
2023/12/11 03:44:29;;;;;;;;;8.33;4.00;;;;;12.03;92.88;100331.63;5098298;27;45410;-48
2023/12/11 03:46:54;;;;;;;;;7.00;1.67;;;;;12.03;92.47;100312.97;5096977;27;45160;-53
2023/12/11 03:49:20;;;;;;;;;6.00;2.00;;;;;12.01;92.74;100295.44;5097986;27;45338;-48
2023/12/11 03:51:46;;;;;;;;;2.00;2.00;;;;;12.06;92.97;100285.97;5098109;27;45796;-50
2023/12/11 03:54:12;;;;;;;;;1.00;1.00;;;;;12.06;92.24;100261.97;5097924;27;45362;-47
2023/12/11 03:56:40;;;;;;;;;6.00;2.00;;;;;12.07;92.31;100268.97;5097478;27;45485;-49
2023/12/11 03:59:06;;;;;;;;;7.67;2.00;;;;;12.06;92.60;100283.31;5097704;27;45416;-53
2023/12/11 04:01:32;;;;;;;;;2.00;2.00;;;;;12.05;92.84;100294.97;5097519;27;45446;-53
2023/12/11 04:03:59;;;;;;;;;2.00;2.00;;;;;12.08;92.55;100307.13;5098099;27;45455;-53
2023/12/11 04:06:24;;;;;;;;;5.33;1.33;;;;;12.07;92.89;100302.78;5097392;27;46330;-53
2023/12/11 04:08:49;;;;;;;;;5.67;3.67;;;;;12.08;93.14;100281.28;5097627;27;45305;-49
2023/12/11 04:11:15;;;;;;;;;1.00;1.00;;;;;12.08;92.93;100301.78;5097708;27;45332;-49
2023/12/11 04:13:40;;;;;;;;;7.33;3.33;;;;;12.08;93.03;100291.94;5097762;27;45291;-52
2023/12/11 04:16:05;;;;;;;;;6.00;2.00;;;;;12.09;92.71;100284.78;5097092;27;45968;-49
2023/12/11 04:18:32;;;;;;;;;4.33;1.33;;;;;12.05;93.00;100275.44;5097405;27;45331;-54
2023/12/11 04:20:58;;;;;;;;;3.00;3.00;;;;;12.05;92.79;100270.97;5097591;27;45373;-47
2023/12/11 04:23:23;;;;;;;;;5.67;3.00;;;;;12.07;92.49;100276.13;5097695;27;45497;-49
2023/12/11 04:25:49;;;;;;;;;4.00;2.00;;;;;12.05;92.86;100278.97;5097124;27;46130;-52
2023/12/11 04:28:14;;;;;;;;;8.00;2.33;;;;;12.07;92.74;100284.97;5097051;27;45471;-50
2023/12/11 04:30:40;;;;;;;;;3.00;3.00;;;;;12.09;92.74;100284.78;5097500;27;45838;-52
2023/12/11 04:33:05;;;;;;;;;9.00;3.00;;;;;12.08;92.91;100281.28;5097220;27;45375;-54
2023/12/11 04:35:30;;;;;;;;;8.67;3.00;;;;;12.12;92.92;100295.94;5097239;27;45905;-47
2023/12/11 04:37:56;;;;;;;;;4.67;4.00;;;;;12.13;93.03;100292.28;5097031;27;45451;-53
2023/12/11 04:40:21;;;;;;;;;3.00;1.67;;;;;12.15;92.68;100265.47;5097235;27;45403;-53
2023/12/11 04:42:46;;;;;;;;;8.67;2.00;;;;;12.15;92.98;100289.47;5097347;27;45460;-49
2023/12/11 04:45:12;;;;;;;;;6.67;1.67;;;;;12.15;92.91;100289.47;5096909;27;45318;-53
2023/12/11 04:47:37;;;;;;;;;8.33;3.00;;;;;12.16;93.03;100285.78;5096883;27;45356;-47
2023/12/11 04:50:03;;;;;;;;;3.33;2.00;;;;;12.11;92.90;100277.47;5097130;27;45301;-53
2023/12/11 04:52:28;;;;;;;;;7.33;2.33;;;;;12.15;92.75;100273.47;5098241;27;45444;-54
2023/12/11 04:54:53;;;;;;;;;5.67;2.00;;;;;12.16;93.19;100270.63;5100573;27;46046;-55
2023/12/11 04:57:19;;;;;;;;;4.00;2.33;;;;;12.15;92.67;100252.97;5100613;27;45300;-51
2023/12/11 04:59:44;;;;;;;;;6.00;3.00;;;;;12.16;92.52;100262.63;5100870;27;45253;-50
2023/12/11 05:02:09;;;;;;;;;7.00;3.00;;;;;12.16;92.71;100275.94;5100507;27;45829;-52
2023/12/11 05:04:35;;;;;;;;;8.00;2.00;;;;;12.18;92.41;100289.97;5100512;27;46163;-52
2023/12/11 05:07:00;;;;;;;;;7.67;3.00;;;;;12.21;92.23;100302.09;5100331;27;45290;-49
2023/12/11 05:09:26;;;;;;;;;3.00;2.00;;;;;12.22;92.49;100315.28;5100555;27;45455;-48
2023/12/11 05:11:51;;;;;;;;;2.67;2.67;;;;;12.22;92.71;100311.81;5100756;27;45314;-52
2023/12/11 05:14:16;;;;;;;;;5.00;2.00;;;;;12.25;92.58;100314.09;5100331;27;46346;-52
2023/12/11 05:16:42;;;;;;;;;4.33;1.33;;;;;12.25;92.25;100311.44;5100116;27;45438;-49
2023/12/11 05:19:07;;;;;;;;;11.33;3.00;;;;;12.25;91.86;100306.09;5100120;27;45701;-48
2023/12/11 05:21:32;;;;;;;;;9.67;4.00;;;;;12.23;91.97;100303.63;5100513;27;45354;-50
2023/12/11 05:23:58;;;;;;;;;6.33;3.00;;;;;12.24;92.42;100307.94;5099919;27;46183;-52
2023/12/11 05:26:23;;;;;;;;;1.00;1.00;;;;;12.28;92.22;100307.63;5100047;27;45290;-50
2023/12/11 05:28:48;;;;;;;;;7.33;2.33;;;;;12.29;92.16;100303.94;5100200;27;45451;-47
2023/12/11 05:31:14;;;;;;;;;3.00;2.00;;;;;12.29;92.11;100299.44;5100409;27;45407;-48
2023/12/11 05:33:40;;;;;;;;;6.33;1.33;;;;;12.25;91.71;100298.09;5099886;27;45332;-49
2023/12/11 05:36:07;;;;;;;;;7.33;2.33;;;;;12.29;91.90;100317.28;5100072;27;45377;-48
2023/12/11 05:38:33;;;;;;;;;7.67;3.67;;;;;12.31;91.61;100310.78;5100091;27;45340;-46
2023/12/11 05:40:58;;;;;;;;;7.33;2.00;;;;;12.32;91.09;100306.28;5100211;27;45409;-52
2023/12/11 05:43:23;;;;;;;;;10.67;2.67;;;;;12.34;91.54;100301.59;5099708;27;45324;-49
2023/12/11 05:45:49;;;;;;;;;6.00;2.67;;;;;12.35;90.91;100301.44;5099839;27;45311;-50
2023/12/11 05:48:14;;;;;;;;;5.00;1.00;;;;;12.36;91.20;100297.78;5099739;27;45237;-51
2023/12/11 05:50:40;;;;;;;;;2.00;2.00;;;;;12.36;91.10;100302.28;5099832;27;45293;-48
2023/12/11 05:53:05;;;;;;;;;3.67;1.67;;;;;12.38;90.64;100308.25;5099933;27;45837;-52
2023/12/11 05:55:30;;;;;;;;;6.67;2.00;;;;;12.39;90.93;100309.94;5099503;27;45164;-51
2023/12/11 05:57:56;;;;;;;;;3.67;3.33;;;;;12.37;90.32;100318.09;5099945;27;45229;-47
2023/12/11 06:00:21;;;;;;;;;5.33;2.00;;;;;12.36;90.74;100302.28;5099898;27;45311;-51
2023/12/11 06:02:47;;;;;;;;;6.67;2.33;;;;;12.37;90.22;100309.25;5099115;27;45294;-48
2023/12/11 06:05:12;;;;;;;;;4.67;3.00;;;;;12.40;90.08;100308.94;5099246;27;45268;-49
2023/12/11 06:07:37;;;;;;;;;8.33;3.33;;;;;12.40;90.36;100307.09;5099386;27;45327;-51
2023/12/11 06:10:03;;;;;;;;;2.67;2.00;;;;;12.40;90.37;100324.94;5099714;27;45352;-49
2023/12/11 06:12:29;;;;;;;;;2.67;1.00;;;;;12.40;90.07;100324.94;5099151;27;46009;-53
2023/12/11 06:14:54;;;;;;;;;9.00;3.33;;;;;12.41;89.63;100331.94;5099296;27;45326;-50
2023/12/11 06:17:20;;;;;;;;;4.33;2.00;;;;;12.42;89.95;100329.09;5099280;27;45411;-50
2023/12/11 06:19:45;;;;;;;;;8.33;3.67;;;;;12.43;89.43;100311.25;5099402;27;45412;-51
2023/12/11 06:22:11;;;;;;;;;17.33;12.00;;;;;12.43;89.45;100333.44;5099283;27;45877;-47
2023/12/11 06:24:40;;;;;;;;;4.00;2.00;;;;;12.41;89.20;100337.28;5099312;27;45590;-48
2023/12/11 06:27:06;;;;;;;;;9.00;2.00;;;;;12.42;89.21;100346.94;5099167;27;45344;-50
2023/12/11 06:29:32;;;;;;;;;6.33;2.00;;;;;12.42;89.52;100344.25;5099283;27;45258;-49
2023/12/11 06:31:57;;;;;;;;;2.33;1.00;;;;;12.43;88.81;100340.59;5098537;27;45974;-47
2023/12/11 06:34:22;;;;;;;;;4.33;2.00;;;;;12.41;89.25;100331.94;5098783;27;45385;-49
2023/12/11 06:36:48;;;;;;;;;6.67;2.67;;;;;12.37;89.62;100336.78;5098986;27;45611;-50
2023/12/11 06:39:13;;;;;;;;;3.00;3.00;;;;;12.37;89.27;100331.44;5099202;27;45464;-48
2023/12/11 06:41:39;;;;;;;;;3.00;3.00;;;;;12.40;89.02;100359.63;5098728;27;46388;-50
2023/12/11 06:44:04;;;;;;;;;4.00;2.00;;;;;12.36;89.56;100355.63;5080411;27;45398;-49
2023/12/11 06:46:30;;;;;;;;;3.33;2.00;;;;;12.39;88.59;100360.63;5080264;27;45422;-51
2023/12/11 06:48:58;;;;;;;;;15.00;3.00;;;;;12.40;88.53;100356.94;5098703;27;45293;-48
2023/12/11 06:51:24;;;;;;;;;4.00;2.33;;;;;12.06;88.77;100291.31;5098517;27;47283;-46
2023/12/11 06:53:50;;;;;;;;;6.33;3.00;;;;;12.40;88.77;100343.63;5098500;27;46327;-49
2023/12/11 06:56:19;;;;;;;;;7.67;1.67;;;;;12.25;88.84;100324.78;5098688;27;45424;-51
2023/12/11 06:58:45;;;;;;;;;2.33;2.33;;;;;12.34;88.57;100339.75;5098814;27;45900;-50
2023/12/11 07:01:11;;;;;;;;;11.67;3.00;;;;;12.37;88.83;100341.28;5098230;27;46910;-51
2023/12/11 07:03:38;;;;;;;;;11.00;2.00;;;;;12.39;88.36;100344.63;5097968;27;45415;-53
2023/12/11 07:06:04;;;;;;;;;8.33;2.67;;;;;12.39;88.76;100356.13;5098564;27;45391;-49
2023/12/11 07:08:29;;;;;;;;;8.00;3.33;;;;;12.41;88.45;100355.94;5098640;27;45346;-52
2023/12/11 07:10:55;;;;;;;;;5.67;2.00;;;;;12.41;88.28;100371.94;5098265;27;46110;-49
2023/12/11 07:13:20;;;;;;;;;7.67;2.67;;;;;12.35;88.03;100351.28;5098370;27;45393;-50
2023/12/11 07:15:45;;;;;;;;;7.00;1.00;;;;;12.42;87.77;100360.28;5097350;27;45224;-50
2023/12/11 07:18:13;;;;;;;;;4.00;1.33;;;;;12.39;88.23;100372.13;5098601;27;45232;-50
2023/12/11 07:20:41;;;;;;;;;6.00;2.00;;;;;12.42;88.54;100378.94;5098211;27;46494;-50
2023/12/11 07:23:07;;;;;;;;;3.00;3.00;;;;;12.40;87.73;100378.28;5098059;27;45860;-50
2023/12/11 07:25:33;;;;;;;;;8.00;2.00;;;;;12.40;87.86;100380.97;5096987;27;45346;-52
2023/12/11 07:27:59;;;;;;;;;6.67;1.67;;;;;12.38;88.21;100381.09;5098230;27;45529;-49
2023/12/11 07:30:26;;;;;;;;;3.67;3.00;;;;;12.28;88.07;100385.78;5098109;27;45996;-49
2023/12/11 07:32:51;;;;;;;;;2.67;2.67;;;;;12.33;88.20;100398.63;5097973;27;46026;-56
2023/12/11 07:35:16;;;;;;;;;9.00;4.00;;;;;12.29;88.03;100398.13;5097875;27;45344;-53
2023/12/11 07:37:42;;;;;;;;;2.00;2.00;;;;;12.10;88.08;100385.13;5098249;27;45275;-53
2023/12/11 07:40:08;;;;;;;;;2.00;1.33;;;;;12.24;87.91;100427.94;5097672;27;46158;-49
2023/12/11 07:42:33;;;;;;;;;6.67;2.00;;;;;12.20;88.36;100421.28;5097765;27;45260;-50
2023/12/11 07:44:59;;;;;;;;;5.00;2.00;;;;;12.22;88.08;100423.81;5097741;27;45794;-51
2023/12/11 07:47:24;;;;;;;;;8.00;5.33;;;;;12.17;88.00;100410.09;5097815;27;45457;-48
2023/12/11 07:49:50;;;;;;;;;6.67;1.33;;;;;12.21;88.08;100416.78;5096227;27;46984;-49
2023/12/11 07:52:15;;;;;;;;;4.00;2.33;;;;;12.19;87.77;100419.63;5097630;27;45435;-50
2023/12/11 07:54:40;;;;;;;;;6.00;4.00;;;;;12.19;88.27;100432.13;5097751;27;45420;-53
2023/12/11 07:57:06;;;;;;;;;4.00;2.00;;;;;12.18;88.14;100417.97;5097762;27;45448;-51
2023/12/11 07:59:31;;;;;;;;;4.00;2.33;;;;;12.18;88.17;100420.63;5097169;27;46006;-48
2023/12/11 08:01:57;;;;;;;;;7.00;3.00;;;;;12.18;87.62;100428.63;5097308;27;45327;-54
2023/12/11 08:04:22;;;;;;;;;3.33;2.67;;;;;12.13;87.70;100424.75;5097207;27;45363;-50
2023/12/11 08:06:47;;;;;;;;;3.33;2.33;;;;;12.21;87.28;100438.13;5097531;27;45393;-50
2023/12/11 08:09:14;;;;;;;;;4.00;2.00;;;;;12.10;87.80;100420.63;5096984;27;47002;-52
2023/12/11 08:11:40;;;;;;;;;9.00;2.00;;;;;12.24;87.10;100449.28;5096975;27;45281;-50
2023/12/11 08:14:05;;;;;;;;;8.00;6.00;;;;;12.27;86.65;100445.47;5097135;27;45457;-49
2023/12/11 08:16:31;;;;;;;;;1.33;1.00;;;;;12.29;86.63;100450.63;5097331;27;45490;-53
2023/12/11 08:18:57;;;;;;;;;12.33;3.33;;;;;12.24;86.89;100443.13;5096798;27;45914;-55
2023/12/11 08:21:23;;;;;;;;;3.33;2.33;;;;;12.33;86.59;100455.47;5096291;27;45455;-53
2023/12/11 08:23:49;;;;;;;;;4.00;2.00;;;;;12.28;86.27;100451.63;5096984;27;45408;-52
2023/12/11 08:26:19;;;;;;;;;3.33;3.00;;;;;12.39;85.76;100467.31;5096933;27;45389;-55
2023/12/11 08:28:46;;;;;;;;;7.00;5.33;;;;;12.42;85.45;100473.13;5096588;27;45895;-55
2023/12/11 08:31:12;;;;;;;;;2.33;2.00;;;;;12.44;85.76;100491.66;5096926;27;45292;-53
2023/12/11 08:33:37;;;;;;;;;9.33;3.00;;;;;12.47;85.62;100475.31;5096917;27;45406;-54
2023/12/11 08:36:04;;;;;;;;;7.67;3.00;;;;;12.51;85.33;100484.66;5097034;27;45434;-55
2023/12/11 08:38:29;;;;;;;;;7.67;3.33;;;;;12.52;85.22;100488.19;5096343;27;46250;-54
2023/12/11 08:40:55;;;;;;;;;4.67;2.33;;;;;12.56;84.75;100485.00;5096801;27;46029;-53
2023/12/11 08:43:20;;;;;;;;;5.33;3.00;;;;;12.61;84.20;100488.00;5097135;27;45446;-55
2023/12/11 08:45:45;;;;;;;;;6.00;2.67;;;;;12.64;84.39;100489.50;5097266;27;45362;-61
2023/12/11 08:48:11;;;;;;;;;10.00;4.00;;;;;12.67;84.02;100495.34;5096821;27;45429;-57
2023/12/11 08:50:36;;;;;;;;;4.33;1.00;;;;;12.69;84.03;100495.19;5096816;27;45478;-57
2023/12/11 08:53:03;;;;;;;;;6.33;3.67;;;;;12.72;83.27;100497.50;5096916;27;45352;-57
2023/12/11 08:55:29;;;;;;;;;7.33;3.00;;;;;12.74;83.37;100509.69;5096966;27;45479;-56
2023/12/11 08:57:55;;;;;;;;;11.33;3.00;;;;;12.44;83.30;100459.66;5096680;27;45984;-57
2023/12/11 09:00:21;;;;;;;;;8.00;5.00;;;;;12.80;82.86;100504.69;5095801;27;45350;-51
2023/12/11 09:02:47;;;;;;;;;4.67;4.67;;;;;12.86;82.44;100507.53;5096888;27;45392;-58
2023/12/11 09:05:12;;;;;;;;;2.33;2.00;;;;;12.91;82.59;100515.03;5096837;27;45537;-54
2023/12/11 09:07:37;;;;;;;;;3.67;2.33;;;;;12.95;82.13;100513.69;5078068;27;45730;-53
2023/12/11 09:10:04;;;;;;;;;3.33;3.00;;;;;12.99;82.12;100512.38;5096652;27;45453;-55
2023/12/11 09:12:30;;;;;;;;;10.00;3.00;;;;;13.02;81.64;100509.38;5096674;27;45424;-55
2023/12/11 09:14:55;;;;;;;;;8.00;4.00;;;;;13.04;81.90;100518.03;5096836;27;45419;-53
2023/12/11 09:17:21;;;;;;;;;3.33;2.67;;;;;12.98;81.25;100505.38;5096667;27;46236;-52
2023/12/11 09:19:46;;;;;;;;;9.33;3.33;;;;;13.08;81.38;100521.22;5096265;27;45390;-53
2023/12/11 09:22:12;;;;;;;;;5.33;3.33;;;;;13.10;81.44;100529.88;5096646;27;45382;-54
2023/12/11 09:24:38;;;;;;;;;9.67;5.33;;;;;13.13;81.13;100537.56;5096696;27;45461;-56
2023/12/11 09:27:04;;;;;;;;;11.67;3.00;;;;;13.15;80.97;100538.22;5096418;27;45404;-51
2023/12/11 09:29:30;;;;;;;;;3.00;1.33;;;;;13.17;80.47;100545.06;5096167;27;45404;-55
2023/12/11 09:31:55;;;;;;;;;4.67;2.00;;;;;13.12;81.24;100546.56;5096346;27;45484;-52
2023/12/11 09:34:20;;;;;;;;;6.67;4.00;;;;;12.99;81.28;100542.56;5096822;27;45470;-55
2023/12/11 09:36:46;;;;;;;;;3.00;3.00;;;;;12.97;80.90;100547.22;5095924;27;45251;-53
2023/12/11 09:39:11;;;;;;;;;5.00;3.00;;;;;12.98;81.31;100553.44;5098022;27;45263;-53
2023/12/11 09:41:37;;;;;;;;;7.33;2.00;;;;;12.93;81.26;100550.41;5099735;27;45361;-53
2023/12/11 09:44:03;;;;;;;;;8.00;3.00;;;;;12.96;81.13;100548.22;5099985;27;45400;-52
2023/12/11 09:46:47;;;;;;;;;8.67;1.67;;;;;12.96;81.14;100560.75;5099479;27;46088;-53
2023/12/11 09:49:12;;;;;;;;;2.00;2.00;;;;;12.92;80.74;100565.59;5099837;27;45444;-50
2023/12/11 09:51:38;;;;;;;;;7.00;3.00;;;;;12.88;81.15;100569.59;5098922;27;45322;-53
2023/12/11 09:54:04;;;;;;;;;11.67;3.00;;;;;12.89;81.36;100575.75;5100126;27;45353;-55
2023/12/11 09:56:31;;;;;;;;;10.00;1.33;;;;;12.96;81.71;100576.78;5099319;27;47198;-52
2023/12/11 09:58:57;;;;;;;;;9.00;3.00;;;;;12.98;80.45;100585.47;5099393;27;45413;-56
2023/12/11 10:01:23;;;;;;;;;3.00;2.33;;;;;12.99;80.27;100585.28;5099414;27;45391;-54
2023/12/11 10:03:48;;;;;;;;;8.33;2.00;;;;;13.05;80.53;100589.13;5099623;27;45300;-54
2023/12/11 10:06:14;;;;;;;;;4.67;2.33;;;;;13.12;80.00;100586.63;5099202;27;45904;-52
2023/12/11 10:08:42;;;;;;;;;7.67;4.67;;;;;13.26;78.97;100591.31;5099247;27;45384;-55
2023/12/11 10:11:13;;;;;;;;;4.00;3.00;;;;;13.29;78.71;100580.31;5099543;27;45373;-53
2023/12/11 10:13:39;;;;;;;;;4.00;2.33;;;;;13.58;78.06;100603.81;5099444;27;45490;-55
2023/12/11 10:16:07;;;;;;;;;4.00;2.00;;;;;13.83;77.54;100593.91;5099118;27;45401;-54
2023/12/11 10:18:46;;;;;;;;;7.67;3.00;;;;;13.98;77.08;100600.19;5098969;27;45382;-55
2023/12/11 10:21:11;;;;;;;;;3.67;3.00;;;;;14.18;75.42;100600.63;5099208;27;45381;-55
2023/12/11 10:23:37;;;;;;;;;8.33;4.00;;;;;14.31;74.96;100599.25;5099295;27;45494;-51
2023/12/11 10:26:06;;;;;;;;;5.00;3.67;;;;;14.44;73.93;100592.31;5098705;27;45368;-53
2023/12/11 10:28:32;;;;;;;;;11.33;4.00;;;;;14.48;74.16;100592.78;5098971;27;45294;-52
2023/12/11 10:31:04;;;;;;;;;7.00;2.00;;;;;14.58;73.71;100592.59;5099041;27;45323;-55
2023/12/11 10:33:33;;;;;;;;;7.00;4.00;;;;;14.72;73.07;100597.22;5099236;27;45390;-55
2023/12/11 10:36:16;;;;;;;;;9.33;2.00;;;;;14.80;72.64;100582.94;5098774;27;45292;-52
2023/12/11 10:38:42;;;;;;;;;7.33;3.00;;;;;14.90;72.20;100588.88;5098916;27;45313;-51
2023/12/11 10:41:09;;;;;;;;;1.67;1.67;;;;;15.09;72.85;100603.66;5098917;27;45415;-51
2023/12/11 10:43:42;;;;;;;;;4.00;3.67;;;;;15.28;71.11;100586.25;5099138;27;45411;-54
2023/12/11 10:46:08;;;;;;;;;6.67;3.00;;;;;15.41;70.41;100594.50;5098596;27;46309;-52
2023/12/11 10:48:35;;;;;;;;;8.00;3.00;;;;;15.38;69.97;100579.63;5098405;27;45379;-53
2023/12/11 10:51:02;;;;;;;;;8.67;5.00;;;;;15.47;69.41;100583.88;5098680;27;45400;-54
2023/12/11 10:53:28;;;;;;;;;6.33;4.00;;;;;15.57;69.51;100590.81;5098834;27;45326;-54
2023/12/11 10:55:57;;;;;;;;;3.00;3.00;;;;;15.58;69.86;100593.31;5098558;27;45549;-55
2023/12/11 10:58:25;;;;;;;;;13.00;5.00;;;;;15.57;68.84;100596.19;5098230;27;45329;-57
2023/12/11 11:00:51;;;;;;;;;7.33;4.33;;;;;15.61;68.93;100586.75;5098483;27;45470;-56
2023/12/11 11:03:19;;;;;;;;;3.67;2.00;;;;;15.56;68.42;100579.28;5080568;27;45510;-49
2023/12/11 11:05:46;;;;;;;;;6.33;3.33;;;;;15.64;68.75;100589.94;5098331;27;45289;-55
2023/12/11 11:08:14;;;;;;;;;10.33;5.00;;;;;15.67;68.21;100581.53;5098341;27;45542;-55
2023/12/11 11:10:45;;;;;;;;;7.00;4.00;;;;;15.69;67.67;100590.22;5098577;27;45387;-53
2023/12/11 11:13:21;;;;;;;;;4.33;2.00;;;;;15.70;67.33;100586.50;5098662;27;45352;-57
2023/12/11 11:15:53;;;;;;;;;4.33;3.00;;;;;15.73;68.07;100584.50;5098126;27;46380;-54
2023/12/11 11:18:19;;;;;;;;;7.00;3.00;;;;;15.75;68.17;100585.13;5098234;27;45583;-55